Time;durP1;ratioP1;P1;durP2;ratioP2;P2;SDS_P1;SDS_P2;PMS_P1;PMS_P2;Temp;Humidity;BMP_temperature;BMP_pressure;BME280_temperature;BME280_humidity;BME280_pressure;Samples;Min_cycle;Max_cycle;Signal;HPM_P1;HPM_P2
2023/09/09 00:01:06;;;;;;;21.30;10.30;;;;;;;18.98;61.85;101171.48;110672;1221;138800;-65
2023/09/09 00:03:32;;;;;;;15.80;9.80;;;;;;;18.95;61.79;101168.41;110739;1212;98281;-65
2023/09/09 00:05:57;;;;;;;17.80;10.30;;;;;;;18.93;61.85;101164.93;110758;1209;139808;-65
2023/09/09 00:08:24;;;;;;;19.40;10.00;;;;;;;18.90;62.10;101164.40;110823;1211;97598;-65
2023/09/09 00:10:49;;;;;;;18.60;10.50;;;;;;;18.88;61.98;101159.11;110819;1212;97657;-65
2023/09/09 00:13:14;;;;;;;17.40;10.20;;;;;;;18.87;62.17;101161.40;110717;1209;139345;-65
2023/09/09 00:15:40;;;;;;;21.40;10.70;;;;;;;18.85;62.39;101163.68;110898;1211;98206;-65
2023/09/09 00:18:05;;;;;;;19.10;10.10;;;;;;;18.85;62.30;101161.70;110692;1210;139594;-65
2023/09/09 00:20:39;;;;;;;15.00;10.20;;;;;;;18.83;62.48;101156.22;110751;1211;97819;-66
2023/09/09 00:23:07;;;;;;;19.40;10.30;;;;;;;18.81;62.44;101157.95;110813;1215;97712;-66
2023/09/09 00:25:37;;;;;;;18.50;10.60;;;;;;;18.80;62.51;101158.56;110701;1222;139311;-65
2023/09/09 00:28:07;;;;;;;17.50;10.70;;;;;;;18.79;62.59;101161.02;110950;1208;102246;-65
2023/09/09 00:30:33;;;;;;;23.90;10.80;;;;;;;18.76;62.56;101161.04;110691;1209;140276;-65
2023/09/09 00:32:59;;;;;;;18.90;10.70;;;;;;;18.74;62.62;101163.55;110796;1212;97715;-65
2023/09/09 00:35:26;;;;;;;21.10;11.00;;;;;;;18.70;62.62;101163.09;110781;1209;97562;-65
2023/09/09 00:37:51;;;;;;;20.30;11.10;;;;;;;18.66;62.84;101162.13;110838;1212;138617;-65
2023/09/09 00:40:16;;;;;;;15.40;10.30;;;;;;;18.64;62.89;101162.42;110755;1212;97581;-65
2023/09/09 00:42:41;;;;;;;15.80;10.00;;;;;;;18.62;63.07;101155.54;110747;1212;138954;-65
2023/09/09 00:45:07;;;;;;;20.50;10.20;;;;;;;18.59;63.11;101159.86;110736;1213;97613;-65
2023/09/09 00:47:33;;;;;;;17.10;10.80;;;;;;;18.56;63.20;101157.67;110800;1216;97639;-65
2023/09/09 00:49:59;;;;;;;19.40;10.50;;;;;;;18.54;63.15;101151.18;110693;1212;140216;-65
2023/09/09 00:52:25;;;;;;;17.30;11.30;;;;;;;18.50;63.12;101151.23;110729;1209;97665;-65
2023/09/09 00:54:51;;;;;;;17.60;11.10;;;;;;;18.46;63.26;101148.25;110735;1210;139962;-65
2023/09/09 00:57:16;;;;;;;16.50;10.40;;;;;;;18.42;63.32;101152.33;110923;1212;97594;-65
2023/09/09 00:59:42;;;;;;;17.50;11.20;;;;;;;18.37;63.47;101144.52;110795;1212;97718;-65
2023/09/09 01:02:07;;;;;;;20.40;11.40;;;;;;;18.34;63.66;101148.71;110732;1212;138774;-66
2023/09/09 01:04:33;;;;;;;15.50;10.70;;;;;;;18.30;63.75;101147.69;110787;1212;101353;-65
2023/09/09 01:07:01;;;;;;;22.40;11.00;;;;;;;18.28;63.98;101150.55;110758;1212;141455;-65
2023/09/09 01:09:30;;;;;;;19.20;10.60;;;;;;;18.27;63.85;101152.98;110766;1210;97523;-65
2023/09/09 01:11:55;;;;;;;16.90;11.80;;;;;;;18.24;64.23;101147.42;110793;1211;140054;-65
2023/09/09 01:14:21;;;;;;;18.10;10.50;;;;;;;18.22;64.13;101145.52;110825;1212;98103;-65
2023/09/09 01:16:50;;;;;;;17.50;10.70;;;;;;;18.20;64.18;101145.88;111086;1210;96440;-65
2023/09/09 01:19:18;;;;;;;18.10;11.50;;;;;;;18.18;64.29;101146.02;110677;1209;138646;-65
2023/09/09 01:21:45;;;;;;;15.40;10.60;;;;;;;18.16;64.49;101145.82;110770;1208;97706;-65
2023/09/09 01:24:15;;;;;;;18.90;11.30;;;;;;;18.13;64.48;101148.71;110862;1209;140221;-65
2023/09/09 01:26:44;;;;;;;19.50;10.10;;;;;;;18.12;64.70;101147.52;110911;1222;97773;-65
2023/09/09 01:29:09;;;;;;;19.20;11.50;;;;;;;18.12;64.82;101145.86;110774;1212;99262;-65
2023/09/09 01:31:35;;;;;;;20.80;11.40;;;;;;;18.13;64.74;101143.47;110693;1208;138688;-65
2023/09/09 01:34:00;;;;;;;19.60;11.60;;;;;;;18.13;64.83;101144.02;110995;1208;100549;-65
2023/09/09 01:36:25;;;;;;;17.60;11.40;;;;;;;18.11;64.82;101144.67;110673;1212;140759;-65
2023/09/09 01:38:51;;;;;;;23.30;11.30;;;;;;;18.09;65.01;101144.48;110871;1210;98076;-66
2023/09/09 01:41:16;;;;;;;16.50;10.50;;;;;;;18.07;64.97;101142.45;110749;1212;98760;-66
2023/09/09 01:43:41;;;;;;;21.90;11.60;;;;;;;18.04;65.10;101146.81;110652;1212;138836;-66
2023/09/09 01:46:06;;;;;;;18.40;11.10;;;;;;;17.99;65.00;101147.66;110753;1209;97639;-66
2023/09/09 01:48:32;;;;;;;17.50;11.10;;;;;;;17.95;65.12;101146.45;110657;1209;141214;-66
2023/09/09 01:50:57;;;;;;;15.30;11.00;;;;;;;17.90;65.33;101143.95;110858;1210;96437;-66
2023/09/09 01:53:22;;;;;;;22.50;11.90;;;;;;;17.84;65.45;101139.80;110713;1213;99330;-66
2023/09/09 01:55:48;;;;;;;18.40;11.40;;;;;;;17.79;65.59;101142.44;110817;1209;138863;-67
2023/09/09 01:58:13;;;;;;;20.40;11.60;;;;;;;17.77;65.72;101139.20;110789;1209;97649;-66
2023/09/09 02:00:38;;;;;;;20.30;11.20;;;;;;;17.73;65.64;101141.06;110675;1212;139072;-66
2023/09/09 02:03:03;;;;;;;19.90;11.10;;;;;;;17.72;65.86;101146.20;110779;1215;97690;-67
2023/09/09 02:05:29;;;;;;;18.20;11.40;;;;;;;17.71;65.90;101143.73;110767;1209;97558;-66
2023/09/09 02:07:54;;;;;;;20.00;12.40;;;;;;;17.68;65.99;101151.89;110958;1212;139524;-64
2023/09/09 02:10:19;;;;;;;18.20;12.70;;;;;;;17.63;65.92;101153.77;110824;1209;97587;-65
2023/09/09 02:12:44;;;;;;;17.90;11.20;;;;;;;17.60;66.16;101151.96;110752;1209;139917;-64
2023/09/09 02:15:11;;;;;;;17.30;11.20;;;;;;;17.56;66.19;101156.45;110818;1212;97673;-64
2023/09/09 02:17:36;;;;;;;22.40;12.00;;;;;;;17.50;66.25;101154.61;110628;1209;97450;-64
2023/09/09 02:20:02;;;;;;;18.80;11.90;;;;;;;17.46;66.22;101155.95;110758;1212;139984;-65
2023/09/09 02:22:28;;;;;;;20.30;12.10;;;;;;;17.45;66.50;101156.05;110745;1211;97655;-65
2023/09/09 02:24:55;;;;;;;18.90;11.70;;;;;;;17.43;66.59;101153.98;110687;1209;138957;-67
2023/09/09 02:27:21;;;;;;;16.30;11.30;;;;;;;17.41;66.66;101152.84;110771;1212;97744;-65
2023/09/09 02:29:47;;;;;;;19.10;11.80;;;;;;;17.40;66.75;101150.95;110913;1210;97584;-64
2023/09/09 02:32:12;;;;;;;23.60;13.10;;;;;;;17.39;66.91;101153.17;110756;1209;138579;-64
2023/09/09 02:34:37;;;;;;;33.10;13.40;;;;;;;17.37;66.96;101152.59;110772;1209;96824;-65
2023/09/09 02:37:17;;;;;;;21.10;12.40;;;;;;;17.36;66.94;101152.65;110743;1212;139238;-65
2023/09/09 02:39:51;;;;;;;24.20;12.50;;;;;;;17.34;67.04;101153.33;110785;1210;99190;-64
2023/09/09 02:42:20;;;;;;;23.10;13.70;;;;;;;17.33;67.14;101151.41;110688;1209;138877;-65
2023/09/09 02:44:45;;;;;;;21.20;12.60;;;;;;;17.31;67.24;101151.34;110975;1212;97556;-63
2023/09/09 02:47:12;;;;;;;21.30;12.40;;;;;;;17.29;67.40;101154.87;110817;1212;98209;-63
2023/09/09 02:49:39;;;;;;;21.20;13.00;;;;;;;17.27;67.47;101154.33;110909;1212;138728;-63
2023/09/09 02:52:05;;;;;;;20.10;12.90;;;;;;;17.25;67.38;101157.17;110814;1209;98122;-63
2023/09/09 02:54:31;;;;;;;24.40;13.00;;;;;;;17.23;67.52;101157.46;110748;1208;139030;-63
2023/09/09 02:56:56;;;;;;;25.10;12.50;;;;;;;17.21;67.66;101157.38;110896;1209;98123;-63
2023/09/09 02:59:23;;;;;;;22.60;13.30;;;;;;;17.20;67.72;101156.73;110811;1210;101503;-63
2023/09/09 03:01:48;;;;;;;19.40;12.60;;;;;;;17.18;67.75;101154.48;110709;1212;140460;-63
2023/09/09 03:04:13;;;;;;;23.50;12.60;;;;;;;17.17;67.78;101151.67;110923;1210;97749;-63
2023/09/09 03:06:38;;;;;;;26.60;13.10;;;;;;;17.13;67.97;101154.66;110628;1209;138902;-63
2023/09/09 03:09:05;;;;;;;19.90;12.10;;;;;;;17.12;68.03;101149.63;110770;1212;99688;-63
2023/09/09 03:11:31;;;;;;;22.40;12.90;;;;;;;17.11;68.20;101147.16;110842;1208;97568;-63
2023/09/09 03:13:57;;;;;;;17.90;11.90;;;;;;;17.08;68.23;101149.00;110703;1208;138728;-63
2023/09/09 03:16:22;;;;;;;19.00;11.60;;;;;;;17.03;68.23;101150.58;110811;1212;97601;-64
2023/09/09 03:18:47;;;;;;;21.50;13.10;;;;;;;16.98;68.34;101152.85;110820;1209;138921;-63
2023/09/09 03:21:13;;;;;;;23.60;13.40;;;;;;;16.94;68.33;101153.27;110793;1212;97682;-63
2023/09/09 03:23:38;;;;;;;20.90;12.20;;;;;;;16.91;68.44;101154.23;110892;1212;98129;-64
2023/09/09 03:26:04;;;;;;;18.80;11.60;;;;;;;16.88;68.73;101153.67;110699;1212;138839;-63
2023/09/09 03:28:30;;;;;;;21.40;12.70;;;;;;;16.85;68.71;101155.27;110807;1209;97750;-63
2023/09/09 03:30:59;;;;;;;19.50;12.10;;;;;;;16.83;68.95;101157.59;110826;1208;139204;-65
2023/09/09 03:33:27;;;;;;;19.10;12.50;;;;;;;16.82;69.02;101157.64;110877;1212;99238;-65
2023/09/09 03:35:53;;;;;;;19.10;12.40;;;;;;;16.81;69.06;101157.90;110810;1212;108025;-65
2023/09/09 03:38:18;;;;;;;19.80;12.70;;;;;;;16.78;69.21;101160.98;110700;1212;140283;-65
2023/09/09 03:40:43;;;;;;;29.50;13.90;;;;;;;16.74;69.35;101160.13;110844;1209;97572;-65
2023/09/09 03:43:11;;;;;;;21.80;13.00;;;;;;;16.73;69.49;101154.80;110723;1212;139256;-65
2023/09/09 03:45:37;;;;;;;24.70;13.70;;;;;;;16.74;69.58;101156.73;110752;1209;97635;-64
2023/09/09 03:48:04;;;;;;;20.00;12.10;;;;;;;16.72;69.36;101154.30;110608;1212;139396;-65
2023/09/09 03:50:30;;;;;;;20.20;13.30;;;;;;;16.68;69.44;101157.42;110844;1212;97708;-64
2023/09/09 03:52:55;;;;;;;25.60;12.90;;;;;;;16.64;69.50;101160.16;111044;1212;96463;-64
2023/09/09 03:55:20;;;;;;;22.80;13.10;;;;;;;16.62;69.82;101155.06;110693;1212;138911;-64
2023/09/09 03:57:46;;;;;;;22.30;14.10;;;;;;;16.61;69.86;101158.36;110860;1212;97650;-64
2023/09/09 04:00:12;;;;;;;19.30;13.20;;;;;;;16.61;70.02;101157.48;110643;1212;139851;-65
2023/09/09 04:02:37;;;;;;;25.80;14.30;;;;;;;16.59;70.07;101155.77;110802;1212;97710;-64
2023/09/09 04:05:03;;;;;;;21.80;13.20;;;;;;;16.57;70.38;101159.14;110855;1212;99494;-64
2023/09/09 04:07:33;;;;;;;20.70;13.20;;;;;;;16.56;70.32;101157.74;110613;1212;139822;-64
2023/09/09 04:09:58;;;;;;;30.70;14.00;;;;;;;16.56;70.48;101160.11;110749;1210;112016;-64
2023/09/09 04:12:24;;;;;;;21.50;13.60;;;;;;;16.55;70.51;101158.52;110689;1208;140174;-64
2023/09/09 04:14:49;;;;;;;24.90;14.50;;;;;;;16.56;70.70;101159.20;110803;1209;98999;-64
2023/09/09 04:17:14;;;;;;;25.40;14.40;;;;;;;16.54;70.72;101160.55;110879;1208;96815;-65
2023/09/09 04:19:39;;;;;;;28.20;14.60;;;;;;;16.53;70.83;101161.69;110734;1211;139289;-64
2023/09/09 04:22:04;;;;;;;27.30;14.70;;;;;;;16.52;70.79;101164.13;110842;1208;97609;-65
2023/09/09 04:24:30;;;;;;;24.80;13.70;;;;;;;16.50;70.94;101162.77;110669;1212;139594;-64
2023/09/09 04:26:55;;;;;;;20.80;13.90;;;;;;;16.50;71.05;101166.56;110758;1211;102928;-64
2023/09/09 04:29:20;;;;;;;24.50;14.90;;;;;;;16.51;71.04;101165.08;110711;1209;97569;-65
2023/09/09 04:31:47;;;;;;;30.50;15.20;;;;;;;16.50;71.09;101162.60;110728;1212;139873;-64
2023/09/09 04:34:12;;;;;;;30.90;15.50;;;;;;;16.50;71.22;101164.99;110874;1208;97653;-64
2023/09/09 04:36:37;;;;;;;22.00;14.30;;;;;;;16.48;71.04;101169.44;110677;1208;140082;-64
2023/09/09 04:39:03;;;;;;;23.10;14.80;;;;;;;16.46;71.23;101167.73;110938;1209;97600;-65
2023/09/09 04:41:28;;;;;;;23.10;14.70;;;;;;;16.46;71.35;101170.44;110782;1212;97610;-66
2023/09/09 04:43:53;;;;;;;26.10;15.80;;;;;;;16.45;71.55;101166.36;110749;1212;139807;-66
2023/09/09 04:46:19;;;;;;;25.40;15.60;;;;;;;16.45;71.59;101165.27;110805;1212;98226;-66
2023/09/09 04:48:44;;;;;;;23.40;14.60;;;;;;;16.45;71.57;101166.33;110693;1210;138987;-66
2023/09/09 04:51:09;;;;;;;23.30;15.90;;;;;;;16.45;71.60;101162.55;110877;1210;97662;-66
2023/09/09 04:53:34;;;;;;;22.70;14.10;;;;;;;16.46;71.67;101160.34;110664;1210;97771;-66
2023/09/09 04:56:00;;;;;;;23.50;14.70;;;;;;;16.44;71.67;101160.43;110765;1212;139720;-66
2023/09/09 04:58:26;;;;;;;22.50;14.80;;;;;;;16.44;71.78;101163.33;110711;1208;97629;-66
2023/09/09 05:00:51;;;;;;;25.00;15.00;;;;;;;16.44;71.72;101165.89;110649;1212;139989;-66
2023/09/09 05:03:16;;;;;;;27.80;15.10;;;;;;;16.45;71.92;101167.63;110823;1212;97604;-65
2023/09/09 05:05:41;;;;;;;24.00;15.20;;;;;;;16.46;72.07;101168.48;110762;1212;97668;-65
2023/09/09 05:08:07;;;;;;;30.10;15.00;;;;;;;16.46;71.94;101167.73;110880;1210;139488;-64
2023/09/09 05:10:33;;;;;;;25.40;14.60;;;;;;;16.47;72.13;101169.10;110627;1209;98026;-65
2023/09/09 05:12:59;;;;;;;27.50;15.60;;;;;;;16.48;72.20;101170.83;110631;1212;138690;-65
2023/09/09 05:15:24;;;;;;;23.70;15.40;;;;;;;16.50;72.23;101168.59;110849;1209;97607;-65
2023/09/09 05:17:49;;;;;;;22.80;15.00;;;;;;;16.51;72.22;101171.57;110763;1212;98930;-65
2023/09/09 05:20:14;;;;;;;25.40;15.10;;;;;;;16.52;72.28;101172.60;110834;1212;138608;-65
2023/09/09 05:22:40;;;;;;;27.40;15.70;;;;;;;16.53;72.48;101174.50;110717;1212;96466;-67
2023/09/09 05:25:06;;;;;;;23.00;16.00;;;;;;;16.57;72.40;101174.27;110697;1212;139201;-67
2023/09/09 05:27:31;;;;;;;26.50;15.70;;;;;;;16.60;72.59;101168.70;110823;1212;97565;-66
2023/09/09 05:29:56;;;;;;;23.40;15.30;;;;;;;16.63;72.61;101168.89;110756;1209;97649;-66
2023/09/09 05:32:22;;;;;;;28.50;14.90;;;;;;;16.67;72.69;101169.41;110765;1209;97697;-66
2023/09/09 05:34:47;;;;;;;30.80;15.80;;;;;;;16.71;72.67;101172.75;110780;1207;97832;-66
2023/09/09 05:37:13;;;;;;;25.70;16.30;;;;;;;16.75;72.73;101173.23;110654;1209;140419;-66
2023/09/09 05:39:38;;;;;;;27.10;16.50;;;;;;;16.80;72.70;101173.86;110858;1212;98142;-66
2023/09/09 05:42:05;;;;;;;23.90;15.10;;;;;;;16.84;72.58;101173.23;110668;1208;138972;-66
2023/09/09 05:44:30;;;;;;;25.30;16.00;;;;;;;16.89;72.73;101174.94;110725;1207;97760;-64
2023/09/09 05:46:55;;;;;;;26.10;15.60;;;;;;;16.93;72.84;101176.98;110902;1211;97666;-64
2023/09/09 05:49:21;;;;;;;22.90;15.80;;;;;;;16.99;72.80;101176.46;110649;1209;139203;-64
2023/09/09 05:51:46;;;;;;;24.90;16.80;;;;;;;17.04;72.79;101176.16;110749;1212;97604;-64
2023/09/09 05:54:12;;;;;;;25.50;16.40;;;;;;;17.10;72.89;101175.77;110798;1209;139353;-64
2023/09/09 05:56:37;;;;;;;24.70;15.80;;;;;;;17.16;73.02;101177.71;110712;1212;97672;-65
2023/09/09 05:59:07;;;;;;;22.50;14.80;;;;;;;17.26;73.20;101177.84;110716;1212;97704;-65
2023/09/09 06:01:32;;;;;;;28.70;16.00;;;;;;;17.37;73.14;101173.90;110556;1212;139414;-63
2023/09/09 06:03:57;;;;;;;20.00;15.20;;;;;;;17.46;73.09;101175.65;110773;1210;97678;-63
2023/09/09 06:06:23;;;;;;;23.90;15.80;;;;;;;17.53;72.87;101178.98;110694;1220;139123;-63
2023/09/09 06:08:48;;;;;;;28.00;16.60;;;;;;;17.59;73.10;101183.90;110876;1209;98876;-64
2023/09/09 06:11:13;;;;;;;25.30;15.70;;;;;;;17.64;72.85;101187.90;110921;1208;97888;-63
2023/09/09 06:13:39;;;;;;;25.50;16.00;;;;;;;17.69;72.92;101190.51;110731;1209;139788;-63
2023/09/09 06:16:04;;;;;;;27.60;16.10;;;;;;;17.73;73.00;101190.20;110794;1208;98395;-63
2023/09/09 06:18:29;;;;;;;28.10;15.90;;;;;;;17.79;73.02;101190.36;110715;1212;139781;-63
2023/09/09 06:20:54;;;;;;;22.80;15.00;;;;;;;17.86;72.93;101190.66;110769;1209;97547;-64
2023/09/09 06:23:19;;;;;;;27.50;15.90;;;;;;;17.91;72.77;101187.05;110879;1212;97658;-64
2023/09/09 06:25:45;;;;;;;25.20;15.40;;;;;;;17.99;72.75;101181.85;110780;1212;138785;-63
2023/09/09 06:28:10;;;;;;;24.60;16.10;;;;;;;18.06;72.79;101180.67;110826;1209;97665;-63
2023/09/09 06:30:35;;;;;;;23.80;15.40;;;;;;;18.11;72.78;101179.95;110596;1212;138905;-63
2023/09/09 06:33:03;;;;;;;22.70;15.50;;;;;;;18.16;72.65;101182.12;110906;1208;97619;-64
2023/09/09 06:35:28;;;;;;;27.30;15.70;;;;;;;18.23;72.64;101184.41;110769;1212;97733;-63
2023/09/09 06:37:53;;;;;;;27.50;14.30;;;;;;;18.29;72.58;101190.10;110818;1211;139398;-63
2023/09/09 06:40:18;;;;;;;24.20;15.20;;;;;;;18.35;72.54;101190.45;110793;1211;99466;-63
2023/09/09 06:42:44;;;;;;;22.50;15.90;;;;;;;18.40;72.47;101191.88;110765;1211;140124;-63
2023/09/09 06:45:12;;;;;;;22.70;15.70;;;;;;;18.45;72.41;101196.59;110813;1209;98770;-64
2023/09/09 06:47:38;;;;;;;27.10;16.10;;;;;;;18.52;72.34;101201.27;110808;1209;103047;-63
2023/09/09 06:50:03;;;;;;;26.00;15.50;;;;;;;18.57;72.24;101199.98;110802;1209;140635;-63
2023/09/09 06:52:28;;;;;;;28.40;16.10;;;;;;;18.63;72.28;101199.63;110854;1212;97700;-63
2023/09/09 06:54:54;;;;;;;25.10;15.50;;;;;;;18.68;72.22;101201.77;110757;1209;138948;-63
2023/09/09 06:57:19;;;;;;;26.80;16.00;;;;;;;18.73;72.24;101202.91;110847;1212;97621;-64
2023/09/09 06:59:44;;;;;;;36.00;16.30;;;;;;;18.78;72.19;101205.45;110859;1209;97695;-63
2023/09/09 07:02:10;;;;;;;31.00;16.70;;;;;;;18.84;72.02;101207.08;110552;1209;140116;-63
2023/09/09 07:04:35;;;;;;;33.60;15.70;;;;;;;18.89;71.91;101204.31;110781;1210;97710;-63
2023/09/09 07:07:00;;;;;;;27.00;16.50;;;;;;;18.96;71.94;101214.89;110644;1209;139268;-63
2023/09/09 07:09:25;;;;;;;39.10;16.30;;;;;;;19.02;71.95;101217.36;110685;1211;97587;-63
2023/09/09 07:11:51;;;;;;;30.70;15.90;;;;;;;19.09;71.82;101213.39;110764;1210;97623;-63
2023/09/09 07:14:16;;;;;;;36.20;16.90;;;;;;;19.17;71.80;101213.07;110879;1209;139288;-63
2023/09/09 07:16:41;;;;;;;32.70;15.80;;;;;;;19.24;71.79;101216.55;110712;1210;99384;-63
2023/09/09 07:19:07;;;;;;;52.90;18.50;;;;;;;19.32;71.64;101215.27;110658;1209;138737;-63
2023/09/09 07:21:32;;;;;;;52.10;17.60;;;;;;;19.40;71.64;101219.36;110702;1212;97719;-63
2023/09/09 07:23:58;;;;;;;41.40;17.80;;;;;;;19.49;71.61;101216.38;110600;1211;141104;-64
2023/09/09 07:26:24;;;;;;;33.20;15.80;;;;;;;19.58;71.52;101212.36;110727;1212;97960;-63
2023/09/09 07:28:49;;;;;;;45.30;18.30;;;;;;;19.65;71.44;101214.38;110789;1209;97844;-63
2023/09/09 07:31:15;;;;;;;30.60;15.90;;;;;;;19.72;71.43;101212.36;110533;1212;138664;-63
2023/09/09 07:33:40;;;;;;;28.00;15.50;;;;;;;19.81;71.20;101210.83;110710;1212;97770;-63
2023/09/09 07:36:05;;;;;;;27.70;16.10;;;;;;;19.91;71.13;101211.72;110660;1209;140418;-63
2023/09/09 07:38:31;;;;;;;29.20;15.90;;;;;;;20.01;71.15;101211.50;110744;1211;97639;-63
2023/09/09 07:40:57;;;;;;;27.00;14.30;;;;;;;20.10;70.93;101209.95;110718;1208;97891;-63
2023/09/09 07:43:23;;;;;;;26.70;13.70;;;;;;;20.19;70.71;101204.21;110630;1211;139329;-63
2023/09/09 07:45:49;;;;;;;21.00;13.70;;;;;;;20.28;70.60;101203.52;110891;1208;97713;-63
2023/09/09 07:48:15;;;;;;;23.90;12.10;;;;;;;20.38;70.53;101202.94;110614;1212;138959;-64
2023/09/09 07:50:40;;;;;;;19.50;11.80;;;;;;;20.50;70.27;101202.29;110697;1209;97585;-63
2023/09/09 07:53:06;;;;;;;19.60;12.80;;;;;;;20.61;70.22;101199.42;110772;1222;97707;-63
2023/09/09 07:55:31;;;;;;;23.50;12.80;;;;;;;20.74;70.02;101198.01;110645;1211;139421;-64
2023/09/09 07:57:56;;;;;;;16.50;12.10;;;;;;;20.86;69.92;101200.20;110813;1213;97792;-63
2023/09/09 08:00:22;;;;;;;22.10;12.00;;;;;;;20.96;69.73;101197.44;110533;1209;139468;-63
2023/09/09 08:02:47;;;;;;;22.60;10.60;;;;;;;21.05;69.74;101197.73;110598;1208;97562;-64
2023/09/09 08:05:13;;;;;;;25.00;10.80;;;;;;;21.17;69.49;101195.18;110806;1212;97617;-64
2023/09/09 08:07:38;;;;;;;22.50;11.70;;;;;;;21.29;69.42;101195.50;112191;1208;139551;-64
2023/09/09 08:10:04;;;;;;;15.20;10.40;;;;;;;21.43;69.08;101196.63;112946;1211;97271;-62
2023/09/09 08:12:30;;;;;;;18.70;11.30;;;;;;;21.55;68.89;101193.64;110611;1209;138874;-64
2023/09/09 08:15:06;;;;;;;16.40;10.80;;;;;;;21.65;68.76;101195.87;110728;1211;98439;-64
2023/09/09 08:17:32;;;;;;;17.20;10.30;;;;;;;21.76;68.40;101191.40;110826;1209;97594;-64
2023/09/09 08:19:58;;;;;;;18.60;11.20;;;;;;;21.86;68.37;101190.23;110613;1211;138816;-64
2023/09/09 08:22:23;;;;;;;18.50;10.40;;;;;;;21.96;68.39;101189.70;110849;1209;97613;-64
2023/09/09 08:24:48;;;;;;;16.70;10.10;;;;;;;22.09;68.09;101190.88;110694;1209;140067;-64
2023/09/09 08:27:14;;;;;;;17.10;10.20;;;;;;;22.19;67.82;101189.29;110857;1212;98903;-64
2023/09/09 08:29:39;;;;;;;12.60;8.70;;;;;;;22.31;67.58;101190.27;110675;1211;97810;-63
2023/09/09 08:32:05;;;;;;;17.00;10.00;;;;;;;22.43;67.41;101193.12;110581;1211;138065;-63
2023/09/09 08:34:30;;;;;;;18.90;9.70;;;;;;;22.52;66.99;101195.21;110874;1209;97661;-63
2023/09/09 08:36:55;;;;;;;13.40;8.80;;;;;;;22.63;66.74;101192.15;110777;1209;138078;-63
2023/09/09 08:39:21;;;;;;;13.90;9.10;;;;;;;22.71;66.52;101189.63;110852;1209;97622;-63
2023/09/09 08:42:08;;;;;;;19.50;9.70;;;;;;;22.79;66.12;101187.64;110814;1212;103175;-63
2023/09/09 08:44:59;;;;;;;12.40;7.90;;;;;;;22.89;65.88;101190.81;110666;1209;97659;-63
2023/09/09 08:47:26;;;;;;;16.90;9.30;;;;;;;22.99;65.56;101193.02;110957;1209;99409;-64
2023/09/09 08:49:53;;;;;;;12.90;7.90;;;;;;;23.08;65.28;101193.19;110696;1209;138204;-64
2023/09/09 08:52:27;;;;;;;18.10;9.10;;;;;;;23.15;65.14;101193.99;111038;1209;96389;-65
2023/09/09 08:54:53;;;;;;;23.00;8.90;;;;;;;23.25;64.74;101194.23;110670;1209;138391;-64
2023/09/09 08:57:18;;;;;;;18.20;9.10;;;;;;;23.35;64.44;101195.52;110622;1212;97707;-65
2023/09/09 08:59:47;;;;;;;18.10;9.40;;;;;;;23.45;64.31;101192.23;110880;1208;97648;-65
2023/09/09 09:02:16;;;;;;;19.60;9.00;;;;;;;23.53;64.08;101189.17;110752;1208;138454;-65
2023/09/09 09:04:42;;;;;;;13.40;8.70;;;;;;;23.60;63.79;101188.88;110765;1212;102895;-65
2023/09/09 09:07:08;;;;;;;16.90;8.40;;;;;;;23.68;63.74;101190.61;110737;1208;138720;-65
2023/09/09 09:09:34;;;;;;;12.10;8.10;;;;;;;23.75;63.64;101191.63;110861;1209;97674;-65
2023/09/09 09:12:01;;;;;;;13.70;8.10;;;;;;;23.82;63.23;101188.98;110700;1211;139758;-64
2023/09/09 09:14:26;;;;;;;16.60;9.20;;;;;;;23.89;63.15;101189.77;110892;1209;98343;-66
2023/09/09 09:16:53;;;;;;;14.10;9.20;;;;;;;23.96;62.89;101191.48;110791;1212;98000;-65
2023/09/09 09:19:29;;;;;;;15.00;9.00;;;;;;;24.03;62.56;101191.76;110590;1209;137783;-65
2023/09/09 09:21:56;;;;;;;20.20;8.50;;;;;;;24.09;62.31;101193.20;110925;1213;97668;-65
2023/09/09 09:24:24;;;;;;;10.80;8.20;;;;;;;24.15;61.97;101192.44;110853;1208;137915;-65
2023/09/09 09:26:49;;;;;;;13.60;8.00;;;;;;;24.22;61.74;101191.83;110907;1211;97687;-65
2023/09/09 09:29:15;;;;;;;15.80;7.80;;;;;;;24.32;61.46;101190.38;110539;1209;98329;-65
2023/09/09 09:31:40;;;;;;;17.70;8.30;;;;;;;24.40;61.22;101193.16;110573;1211;138543;-66
2023/09/09 09:34:08;;;;;;;17.90;8.90;;;;;;;24.47;61.15;101190.48;110768;1209;97607;-65
2023/09/09 09:36:34;;;;;;;18.80;7.90;;;;;;;24.55;60.88;101187.69;110727;1212;139211;-65
2023/09/09 09:39:10;;;;;;;15.70;7.80;;;;;;;24.65;60.70;101190.03;111054;1209;97571;-65
2023/09/09 09:41:39;;;;;;;12.30;7.70;;;;;;;24.76;60.43;101191.90;110814;1211;97716;-66
2023/09/09 09:44:15;;;;;;;11.00;7.70;;;;;;;24.84;60.08;101190.58;110600;1207;138721;-66
2023/09/09 09:46:41;;;;;;;13.60;7.60;;;;;;;24.89;59.63;101187.91;110762;1211;103587;-67
2023/09/09 09:49:08;;;;;;;15.20;8.10;;;;;;;24.91;59.30;101186.24;110725;1209;139327;-66
2023/09/09 09:51:43;;;;;;;12.30;7.40;;;;;;;24.96;59.32;101182.73;110733;1209;97776;-66
2023/09/09 09:54:09;;;;;;;11.40;7.50;;;;;;;25.02;59.12;101181.64;110846;1209;138681;-64
2023/09/09 09:56:38;;;;;;;12.80;7.40;;;;;;;25.08;58.82;101179.18;110755;1212;97696;-64
2023/09/09 09:59:05;;;;;;;19.60;8.00;;;;;;;25.15;58.53;101175.20;110910;1208;97661;-64
2023/09/09 10:01:32;;;;;;;10.90;6.80;;;;;;;25.22;58.32;101171.80;110645;1211;138945;-64
2023/09/09 10:04:05;;;;;;;12.30;6.90;;;;;;;25.32;57.99;101167.57;110799;1208;97604;-64
2023/09/09 10:06:33;;;;;;;12.90;6.30;;;;;;;25.41;57.58;101163.33;110588;1209;139523;-63
2023/09/09 10:09:04;;;;;;;13.20;6.70;;;;;;;25.47;57.43;101157.58;110891;1211;97627;-64
2023/09/09 10:11:36;;;;;;;13.70;8.10;;;;;;;25.54;57.15;101154.92;110601;1212;102563;-64
2023/09/09 10:14:15;;;;;;;11.40;7.50;;;;;;;25.62;56.92;101153.24;110986;1208;139171;-63
2023/09/09 10:16:42;;;;;;;23.00;8.60;;;;;;;25.69;56.56;101149.98;110657;1211;99178;-64
2023/09/09 10:19:10;;;;;;;14.90;6.80;;;;;;;25.76;56.31;101149.34;110594;1211;138834;-64
2023/09/09 10:21:36;;;;;;;14.60;6.80;;;;;;;25.82;56.21;101152.40;110634;1211;96440;-64
2023/09/09 10:24:05;;;;;;;14.00;7.20;;;;;;;25.89;55.78;101150.22;110586;1208;139010;-63
2023/09/09 10:26:31;;;;;;;8.20;6.20;;;;;;;25.96;55.49;101148.21;110688;1211;97688;-63
2023/09/09 10:28:59;;;;;;;11.10;6.40;;;;;;;26.05;55.20;101147.70;110701;1211;97571;-64
2023/09/09 10:31:27;;;;;;;9.30;6.70;;;;;;;26.12;55.03;101145.98;110746;1209;138468;-63
2023/09/09 10:33:55;;;;;;;10.60;6.10;;;;;;;26.21;54.82;101148.98;110645;1211;96537;-64
2023/09/09 10:36:21;;;;;;;11.60;6.60;;;;;;;26.30;54.47;101147.87;110646;1209;138220;-65
2023/09/09 10:38:48;;;;;;;8.90;6.00;;;;;;;26.34;54.12;101146.56;110751;1211;97720;-65
2023/09/09 10:41:16;;;;;;;10.80;6.30;;;;;;;26.38;53.88;101148.23;110670;1211;97555;-64
2023/09/09 10:43:41;;;;;;;10.80;5.90;;;;;;;26.44;53.72;101150.06;110538;1210;138056;-65
2023/09/09 10:46:08;;;;;;;18.20;7.10;;;;;;;26.52;53.70;101149.29;110723;1209;96364;-65
2023/09/09 10:48:34;;;;;;;10.90;7.60;;;;;;;26.60;53.35;101153.02;110517;1208;139082;-65
2023/09/09 10:51:05;;;;;;;12.30;8.10;;;;;;;26.69;53.13;101151.02;113072;1208;95953;-64
2023/09/09 10:53:31;;;;;;;13.20;7.40;;;;;;;26.81;53.07;101149.37;113052;1208;95660;-65
2023/09/09 10:56:21;;;;;;;11.00;6.20;;;;;;;26.93;52.89;101147.94;113036;1208;139768;-65